Time;durP1;ratioP1;P1;durP2;ratioP2;P2;SDS_P1;SDS_P2;PMS_P1;PMS_P2;Temp;Humidity;BMP_temperature;BMP_pressure;BME280_temperature;BME280_humidity;BME280_pressure;Samples;Min_cycle;Max_cycle;Signal;HPM_P1;HPM_P2
2024/03/02 00:00:14;;;;;;;7.88;2.20;;;13.20;82.70;;;;;;5035098;28;20076;-73
2024/03/02 00:02:45;;;;;;;6.75;2.25;;;13.20;82.70;;;;;;5034604;28;20037;-74
2024/03/02 00:05:16;;;;;;;6.85;2.40;;;13.20;83.00;;;;;;5034855;28;20038;-74
2024/03/02 00:07:43;;;;;;;9.23;2.50;;;13.20;83.00;;;;;;5034860;28;20124;-72
2024/03/02 00:10:13;;;;;;;8.77;2.55;;;13.30;83.10;;;;;;5034878;28;20033;-74
2024/03/02 00:12:40;;;;;;;5.10;2.10;;;13.30;83.30;;;;;;5034999;28;20045;-74
2024/03/02 00:15:26;;;;;;;4.88;2.20;;;13.30;83.20;;;;;;5034853;28;20045;-73
2024/03/02 00:17:55;;;;;;;5.80;2.00;;;13.30;83.50;;;;;;5033511;28;20033;-73
2024/03/02 00:20:27;;;;;;;5.78;2.53;;;13.40;83.60;;;;;;5034380;28;20440;-73
2024/03/02 00:23:04;;;;;;;5.43;1.95;;;13.40;83.60;;;;;;5034378;28;20038;-74
2024/03/02 00:25:43;;;;;;;5.28;2.20;;;13.40;83.70;;;;;;5034482;28;20034;-74
2024/03/02 00:28:21;;;;;;;3.47;1.80;;;13.40;84.00;;;;;;5034657;28;20038;-73
2024/03/02 00:31:07;;;;;;;4.70;2.40;;;13.40;84.00;;;;;;5039178;28;20055;-74
2024/03/02 00:33:40;;;;;;;5.22;2.22;;;13.40;84.10;;;;;;5054288;28;20040;-73
2024/03/02 00:36:06;;;;;;;3.40;2.03;;;13.40;84.00;;;;;;5054263;28;20090;-73
2024/03/02 00:38:33;;;;;;;5.40;2.45;;;13.40;84.10;;;;;;5054147;28;20511;-73
2024/03/02 00:41:04;;;;;;;3.83;2.03;;;13.40;84.20;;;;;;5054171;28;20037;-73
2024/03/02 00:43:50;;;;;;;4.85;2.50;;;13.40;84.10;;;;;;5053897;28;20037;-73
2024/03/02 00:46:18;;;;;;;5.32;2.30;;;13.50;84.20;;;;;;5053624;28;20489;-73
2024/03/02 00:48:58;;;;;;;5.20;2.08;;;13.40;84.10;;;;;;5054042;28;20388;-73
2024/03/02 00:51:26;;;;;;;8.70;2.40;;;13.40;84.50;;;;;;5054116;28;20043;-74
2024/03/02 00:53:55;;;;;;;4.90;2.28;;;13.40;84.50;;;;;;5054071;28;20040;-73
2024/03/02 00:56:21;;;;;;;5.93;1.58;;;13.40;84.70;;;;;;5053769;28;20033;-72
2024/03/02 00:58:46;;;;;;;4.60;1.83;;;13.40;84.70;;;;;;5053617;28;20032;-73
2024/03/02 01:01:12;;;;;;;4.85;2.20;;;13.40;85.00;;;;;;5037056;28;20033;-73
2024/03/02 01:03:38;;;;;;;4.20;1.83;;;13.40;85.40;;;;;;5034098;28;20032;-74
2024/03/02 01:06:05;;;;;;;4.18;1.75;;;13.40;85.30;;;;;;5033914;28;20068;-74
2024/03/02 01:08:30;;;;;;;5.82;1.77;;;13.40;85.30;;;;;;5030468;28;20049;-74
2024/03/02 01:10:56;;;;;;;4.15;1.80;;;13.40;85.40;;;;;;5033597;28;20029;-73
2024/03/02 01:13:23;;;;;;;3.47;1.70;;;13.40;85.50;;;;;;5033673;28;20029;-73
2024/03/02 01:15:49;;;;;;;5.30;1.70;;;13.30;86.20;;;;;;5033758;28;20041;-74
2024/03/02 01:18:15;;;;;;;4.15;1.98;;;13.30;85.80;;;;;;5034052;28;20034;-74
2024/03/02 01:20:40;;;;;;;6.13;2.00;;;13.30;85.90;;;;;;5042966;28;20033;-73
2024/03/02 01:23:06;;;;;;;5.13;2.30;;;13.20;85.80;;;;;;5053442;28;20033;-74
2024/03/02 01:25:32;;;;;;;3.28;1.75;;;13.30;85.90;;;;;;5053148;28;20132;-74
2024/03/02 01:27:58;;;;;;;3.85;1.80;;;13.30;86.00;;;;;;5053091;28;20033;-73
2024/03/02 01:30:23;;;;;;;4.97;1.85;;;13.30;86.10;;;;;;5053045;28;20025;-73
2024/03/02 01:32:49;;;;;;;4.22;1.67;;;13.30;86.10;;;;;;5052610;28;20041;-73
2024/03/02 01:35:15;;;;;;;3.35;1.63;;;13.30;86.30;;;;;;5053025;28;20037;-73
2024/03/02 01:37:41;;;;;;;5.32;1.83;;;13.40;86.40;;;;;;5053128;28;20488;-73
2024/03/02 01:40:09;;;;;;;3.97;1.83;;;13.30;86.60;;;;;;5051898;28;20385;-74
2024/03/02 01:42:39;;;;;;;3.95;1.88;;;13.30;86.70;;;;;;5033140;28;20026;-73
2024/03/02 01:45:06;;;;;;;3.65;1.80;;;13.30;86.80;;;;;;5033144;28;20029;-73
2024/03/02 01:47:32;;;;;;;3.80;2.17;;;13.20;87.10;;;;;;5032957;28;20212;-73
2024/03/02 01:49:58;;;;;;;3.08;1.75;;;13.20;87.20;;;;;;5032920;28;20036;-73
2024/03/02 01:52:24;;;;;;;7.50;2.70;;;13.20;87.40;;;;;;5033132;28;20398;-73
2024/03/02 01:54:50;;;;;;;3.45;1.88;;;13.20;87.50;;;;;;5032888;28;20033;-75
2024/03/02 01:57:16;;;;;;;3.67;2.10;;;13.30;87.70;;;;;;5032981;28;20041;-72
2024/03/02 01:59:42;;;;;;;5.35;2.20;;;13.30;87.90;;;;;;5031597;28;20036;-74
2024/03/02 02:02:08;;;;;;;3.78;1.70;;;13.20;87.80;;;;;;5032902;28;20038;-73
2024/03/02 02:04:33;;;;;;;5.57;2.08;;;13.20;87.90;;;;;;5031700;28;20030;-72
2024/03/02 02:06:59;;;;;;;4.57;2.22;;;13.20;88.20;;;;;;5032628;28;20493;-73
2024/03/02 02:09:25;;;;;;;4.47;2.00;;;13.20;88.40;;;;;;5032614;28;20036;-73
2024/03/02 02:11:52;;;;;;;3.50;1.63;;;13.20;88.60;;;;;;5032551;28;20044;-74
2024/03/02 02:14:18;;;;;;;3.10;1.60;;;13.20;88.50;;;;;;5032688;28;20473;-73
2024/03/02 02:16:44;;;;;;;2.97;1.60;;;13.10;88.70;;;;;;5032634;28;20040;-72
2024/03/02 02:19:10;;;;;;;3.75;1.70;;;13.10;89.00;;;;;;5032541;28;20057;-73
2024/03/02 02:21:36;;;;;;;2.85;1.60;;;13.10;89.00;;;;;;5031066;28;20030;-72
2024/03/02 02:24:03;;;;;;;3.28;1.90;;;13.10;89.10;;;;;;5031111;28;20034;-73
2024/03/02 02:26:29;;;;;;;2.88;1.50;;;13.00;89.30;;;;;;5032144;28;20042;-72
2024/03/02 02:28:55;;;;;;;3.78;1.80;;;13.00;89.20;;;;;;5032353;28;20037;-74
2024/03/02 02:31:21;;;;;;;1.77;1.30;;;13.00;89.80;;;;;;5041766;28;20053;-73
2024/03/02 02:33:46;;;;;;;2.60;1.50;;;12.90;89.40;;;;;;5034625;28;20055;-73
2024/03/02 02:36:12;;;;;;;2.47;1.42;;;12.90;89.50;;;;;;5051945;28;20061;-73
2024/03/02 02:38:46;;;;;;;2.22;1.45;;;12.90;89.70;;;;;;5051838;28;20033;-72
2024/03/02 02:41:12;;;;;;;2.15;1.40;;;12.80;89.70;;;;;;5034349;28;20051;-73
2024/03/02 02:43:39;;;;;;;2.05;1.33;;;12.80;90.00;;;;;;5051700;28;20128;-72
2024/03/02 02:46:05;;;;;;;2.60;1.40;;;12.70;90.00;;;;;;5055973;28;20029;-73
2024/03/02 02:48:31;;;;;;;2.90;1.58;;;12.70;90.00;;;;;;5056426;28;20040;-73
2024/03/02 02:50:56;;;;;;;2.78;1.73;;;12.70;90.20;;;;;;5056066;28;20033;-73
2024/03/02 02:53:22;;;;;;;2.90;1.90;;;12.70;89.90;;;;;;5055852;28;20102;-73
2024/03/02 02:55:48;;;;;;;2.17;1.42;;;12.70;90.00;;;;;;5056016;28;20548;-73
2024/03/02 02:58:14;;;;;;;2.90;1.60;;;12.70;90.00;;;;;;5055929;28;20037;-73
2024/03/02 03:00:40;;;;;;;3.90;1.80;;;12.70;90.00;;;;;;5055830;28;20033;-72
2024/03/02 03:03:06;;;;;;;3.13;1.40;;;12.80;90.00;;;;;;5055592;28;20164;-72
2024/03/02 03:05:31;;;;;;;3.15;1.60;;;12.80;90.00;;;;;;5055600;28;20029;-73
2024/03/02 03:07:57;;;;;;;2.55;1.52;;;12.80;89.90;;;;;;5055774;28;20507;-74
2024/03/02 03:10:25;;;;;;;2.58;1.60;;;12.80;90.00;;;;;;5056039;28;20056;-73
2024/03/02 03:12:51;;;;;;;3.63;1.52;;;12.80;90.00;;;;;;5055934;28;20052;-72
2024/03/02 03:15:17;;;;;;;3.03;1.60;;;12.90;90.00;;;;;;5055739;28;20040;-73
2024/03/02 03:17:43;;;;;;;1.85;1.40;;;12.90;90.00;;;;;;5055615;28;20025;-72
2024/03/02 03:20:12;;;;;;;3.22;1.65;;;12.90;90.00;;;;;;5055585;28;20098;-72
2024/03/02 03:22:38;;;;;;;2.67;1.48;;;12.90;89.80;;;;;;5056000;28;20029;-74
2024/03/02 03:25:05;;;;;;;5.25;1.90;;;12.80;89.80;;;;;;5055403;28;20036;-73
2024/03/02 03:27:30;;;;;;;4.90;1.80;;;12.80;90.10;;;;;;5055032;28;20049;-72
2024/03/02 03:29:56;;;;;;;2.47;1.48;;;12.80;90.00;;;;;;5055084;28;20080;-73
2024/03/02 03:32:22;;;;;;;2.28;1.42;;;12.90;90.00;;;;;;5055185;28;20048;-72
2024/03/02 03:34:48;;;;;;;2.17;1.25;;;12.90;90.00;;;;;;5055257;28;20039;-74
2024/03/02 03:37:14;;;;;;;2.38;1.42;;;12.90;90.10;;;;;;5055386;28;20485;-72
2024/03/02 03:39:40;;;;;;;1.67;1.38;;;12.90;90.00;;;;;;5056102;28;20041;-72
2024/03/02 03:42:06;;;;;;;2.67;1.45;;;12.90;90.00;;;;;;5055399;28;20037;-75
2024/03/02 03:44:32;;;;;;;4.22;1.50;;;12.90;90.10;;;;;;5055340;28;20379;-74
2024/03/02 03:46:58;;;;;;;4.22;1.58;;;13.00;90.20;;;;;;5055278;28;20094;-74
2024/03/02 03:49:23;;;;;;;2.20;1.33;;;13.00;90.20;;;;;;5054977;28;20163;-73
2024/03/02 03:51:49;;;;;;;2.38;1.35;;;13.10;90.10;;;;;;5055157;28;20392;-76
2024/03/02 03:54:15;;;;;;;2.42;1.15;;;13.10;90.20;;;;;;5054783;28;20113;-74
2024/03/02 03:56:40;;;;;;;3.17;1.42;;;13.20;90.30;;;;;;5036790;28;20471;-74
2024/03/02 03:59:06;;;;;;;2.40;1.20;;;13.20;90.30;;;;;;5054776;28;20468;-73
2024/03/02 04:01:32;;;;;;;2.60;1.50;;;13.20;90.30;;;;;;5054485;28;20033;-73
2024/03/02 04:03:58;;;;;;;3.15;1.17;;;13.20;90.40;;;;;;5054668;28;20080;-73
2024/03/02 04:06:24;;;;;;;1.40;1.00;;;13.20;90.50;;;;;;5054670;28;20052;-74
2024/03/02 04:08:49;;;;;;;2.25;1.23;;;13.20;90.50;;;;;;5054704;28;20025;-74
2024/03/02 04:11:15;;;;;;;3.22;1.27;;;13.20;90.60;;;;;;5054473;28;20071;-74
2024/03/02 04:13:41;;;;;;;2.63;1.30;;;13.20;90.70;;;;;;5054540;28;20033;-74
2024/03/02 04:16:06;;;;;;;2.53;1.30;;;13.10;90.60;;;;;;5054646;28;20025;-74
2024/03/02 04:18:32;;;;;;;3.67;1.75;;;13.10;90.70;;;;;;5054366;28;20402;-74
2024/03/02 04:21:01;;;;;;;3.38;1.83;;;13.10;90.70;;;;;;5020274;28;20033;-74
2024/03/02 04:23:27;;;;;;;2.53;1.48;;;13.10;90.70;;;;;;5054551;28;20035;-74
2024/03/02 04:25:53;;;;;;;3.92;1.50;;;13.10;90.90;;;;;;5036512;28;20128;-76
2024/03/02 04:28:18;;;;;;;4.25;1.80;;;13.10;90.90;;;;;;5054400;28;20036;-72
2024/03/02 04:30:44;;;;;;;3.17;1.63;;;13.00;90.90;;;;;;5053805;28;20052;-73
2024/03/02 04:33:10;;;;;;;3.47;1.67;;;13.00;91.00;;;;;;5053970;28;20560;-74
2024/03/02 04:35:38;;;;;;;4.00;2.20;;;13.00;91.00;;;;;;5054168;28;20033;-74
2024/03/02 04:38:04;;;;;;;4.68;1.95;;;13.00;90.90;;;;;;5054253;28;20033;-75
2024/03/02 04:40:30;;;;;;;4.60;2.20;;;13.00;91.10;;;;;;5054149;28;20408;-74
2024/03/02 04:42:56;;;;;;;3.72;2.10;;;13.00;91.10;;;;;;5054199;28;20102;-75
2024/03/02 04:45:21;;;;;;;4.47;1.90;;;12.90;90.90;;;;;;5054048;28;20061;-74
2024/03/02 04:47:47;;;;;;;4.18;2.08;;;12.90;91.30;;;;;;5053763;28;20622;-73
2024/03/02 04:50:13;;;;;;;3.85;2.10;;;12.90;91.30;;;;;;5053912;28;20407;-73
2024/03/02 04:52:39;;;;;;;4.18;2.38;;;13.00;91.50;;;;;;5054018;28;20033;-74
2024/03/02 04:57:40;;;;;;;4.93;2.33;;;12.90;91.40;;;;;;5053863;28;20041;-74
2024/03/02 05:00:08;;;;;;;5.00;2.30;;;12.80;91.20;;;;;;5053790;28;20033;-74
2024/03/02 05:02:34;;;;;;;6.32;3.17;;;12.80;91.30;;;;;;5053556;28;20032;-73
2024/03/02 05:05:00;;;;;;;4.25;2.45;;;12.80;91.40;;;;;;5053605;28;20033;-74
2024/03/02 05:07:26;;;;;;;3.60;1.90;;;12.80;91.60;;;;;;5052999;28;20094;-73
2024/03/02 05:09:52;;;;;;;4.40;2.28;;;12.70;91.60;;;;;;5053742;28;20033;-74
2024/03/02 05:14:49;;;;;;;3.25;1.75;;;12.70;91.60;;;;;;5033540;28;20033;-74
2024/03/02 05:17:15;;;;;;;3.55;2.00;;;12.60;91.60;;;;;;5033324;28;20140;-74
2024/03/02 05:19:40;;;;;;;3.60;1.80;;;12.70;91.80;;;;;;5033485;28;20101;-74
2024/03/02 05:22:06;;;;;;;4.18;2.00;;;12.70;91.70;;;;;;5033239;28;20038;-73
2024/03/02 05:24:32;;;;;;;5.15;2.20;;;12.70;91.70;;;;;;5033415;28;20029;-74
2024/03/02 05:26:58;;;;;;;4.00;2.40;;;12.60;91.90;;;;;;5033326;28;20558;-74
2024/03/02 05:29:23;;;;;;;3.45;2.10;;;12.50;91.90;;;;;;5033009;28;20029;-73
2024/03/02 05:31:49;;;;;;;3.92;2.28;;;12.50;92.00;;;;;;5033046;28;20052;-75
2024/03/02 05:34:15;;;;;;;3.67;2.20;;;12.40;92.10;;;;;;5033086;28;20091;-73
2024/03/02 05:36:41;;;;;;;3.63;2.20;;;12.50;92.20;;;;;;5033103;28;20073;-74
2024/03/02 05:39:08;;;;;;;3.88;2.22;;;12.50;92.20;;;;;;5033171;28;20041;-74
2024/03/02 05:41:35;;;;;;;8.48;2.33;;;12.50;92.30;;;;;;5033076;28;20048;-74
2024/03/02 05:44:01;;;;;;;5.85;1.90;;;12.50;92.30;;;;;;5033188;28;20042;-75
2024/03/02 05:46:27;;;;;;;3.08;1.80;;;12.50;92.20;;;;;;5033330;28;20128;-74
2024/03/02 05:48:53;;;;;;;6.20;1.98;;;12.50;92.30;;;;;;5032790;28;20108;-74
2024/03/02 05:51:18;;;;;;;6.75;2.03;;;12.60;92.20;;;;;;5032897;28;20160;-74
2024/03/02 05:53:44;;;;;;;4.85;2.22;;;12.60;92.20;;;;;;5032962;28;20054;-75
2024/03/02 05:56:11;;;;;;;6.40;2.97;;;12.60;92.30;;;;;;5033010;28;20057;-75
2024/03/02 06:01:12;;;;;;;7.00;3.35;;;12.70;92.30;;;;;;5033084;28;20033;-74
2024/03/02 06:03:38;;;;;;;3.95;2.10;;;12.80;92.30;;;;;;5033015;28;20429;-74
2024/03/02 06:06:04;;;;;;;5.50;2.50;;;12.80;92.30;;;;;;5032358;28;20099;-74
2024/03/02 06:08:29;;;;;;;5.40;2.13;;;12.90;92.20;;;;;;5032960;28;20470;-74
2024/03/02 06:10:56;;;;;;;7.88;2.72;;;12.90;92.10;;;;;;5032788;28;20029;-74
2024/03/02 06:13:22;;;;;;;4.35;2.30;;;13.00;92.10;;;;;;5032589;28;20103;-75
2024/03/02 06:15:47;;;;;;;3.60;2.13;;;13.00;92.00;;;;;;5032574;28;20486;-74
2024/03/02 06:18:13;;;;;;;3.58;2.20;;;13.00;92.00;;;;;;5032387;28;20042;-74
2024/03/02 06:20:39;;;;;;;4.68;2.15;;;13.00;92.10;;;;;;5032453;28;20037;-74
2024/03/02 06:23:05;;;;;;;5.50;2.42;;;13.00;92.00;;;;;;5031754;28;20045;-73
2024/03/02 06:25:30;;;;;;;4.57;2.50;;;13.00;92.10;;;;;;5023123;28;20038;-76
2024/03/02 06:27:56;;;;;;;5.30;2.22;;;13.00;92.00;;;;;;5030626;28;20045;-76
2024/03/02 06:30:22;;;;;;;4.38;2.35;;;13.10;92.00;;;;;;5032336;28;20026;-73
2024/03/02 06:32:47;;;;;;;6.45;2.40;;;13.00;92.10;;;;;;5032455;28;20033;-72
2024/03/02 06:35:13;;;;;;;4.72;2.42;;;13.10;92.20;;;;;;5032297;28;20034;-72
2024/03/02 06:37:42;;;;;;;4.97;2.63;;;13.10;92.10;;;;;;5032423;28;20497;-72
2024/03/02 06:40:08;;;;;;;5.03;2.45;;;13.10;92.20;;;;;;5032100;28;20033;-74
2024/03/02 06:42:35;;;;;;;7.63;2.60;;;13.00;92.00;;;;;;5010500;28;20049;-71
2024/03/02 06:45:02;;;;;;;5.75;2.90;;;12.90;92.10;;;;;;5012517;28;20030;-70
2024/03/02 06:47:27;;;;;;;6.10;3.22;;;12.80;92.30;;;;;;5012150;28;20056;-72
2024/03/02 06:49:53;;;;;;;4.88;2.85;;;12.90;92.40;;;;;;5011098;28;20034;-72
2024/03/02 06:52:20;;;;;;;6.35;3.13;;;12.90;92.20;;;;;;5012100;28;20129;-71
2024/03/02 06:54:46;;;;;;;6.00;3.50;;;12.90;92.30;;;;;;5012123;28;20062;-72
2024/03/02 06:57:12;;;;;;;4.82;3.33;;;13.00;92.30;;;;;;5012246;28;20117;-70
2024/03/02 06:59:37;;;;;;;8.02;3.83;;;13.00;92.30;;;;;;5019114;28;20068;-71
2024/03/02 07:02:03;;;;;;;5.43;3.42;;;12.90;92.30;;;;;;5024995;28;20036;-73
2024/03/02 07:04:29;;;;;;;5.25;3.42;;;12.80;92.40;;;;;;5031830;28;20434;-71
2024/03/02 07:06:54;;;;;;;7.05;4.03;;;12.80;92.40;;;;;;5024766;28;20125;-75
2024/03/02 07:09:22;;;;;;;5.18;3.60;;;12.80;92.70;;;;;;5031755;28;20424;-72
2024/03/02 07:11:49;;;;;;;8.40;4.25;;;12.80;92.50;;;;;;5032084;28;20041;-72
2024/03/02 07:14:14;;;;;;;6.82;4.53;;;12.80;92.60;;;;;;5013720;28;20493;-71
2024/03/02 07:16:40;;;;;;;5.07;3.67;;;12.80;93.00;;;;;;5031621;28;20044;-72
2024/03/02 07:19:06;;;;;;;8.55;4.20;;;12.80;92.70;;;;;;5031673;28;20073;-72
2024/03/02 07:21:35;;;;;;;8.50;3.90;;;12.80;92.80;;;;;;5031658;28;20081;-73
2024/03/02 07:24:02;;;;;;;7.18;3.90;;;12.80;92.70;;;;;;5031725;28;20576;-72
2024/03/02 07:26:31;;;;;;;5.68;3.90;;;12.80;92.90;;;;;;5031658;28;20069;-73
2024/03/02 07:28:57;;;;;;;6.35;4.45;;;12.90;92.90;;;;;;5031897;28;20026;-72
2024/03/02 07:31:22;;;;;;;8.73;4.43;;;13.00;92.80;;;;;;5034425;28;20136;-71
2024/03/02 07:33:48;;;;;;;8.52;4.22;;;13.00;92.70;;;;;;5034677;28;20568;-71
2024/03/02 07:36:14;;;;;;;6.85;4.10;;;13.10;92.80;;;;;;5035082;28;20033;-72
2024/03/02 07:38:40;;;;;;;8.55;4.20;;;13.20;92.70;;;;;;5034842;28;20044;-70
2024/03/02 07:41:07;;;;;;;5.97;4.00;;;13.30;92.70;;;;;;5035077;28;20029;-71
2024/03/02 07:43:33;;;;;;;6.82;4.68;;;13.40;92.40;;;;;;5034236;28;20033;-73
2024/03/02 07:45:59;;;;;;;9.20;4.05;;;13.40;92.50;;;;;;5033828;28;20115;-71
2024/03/02 07:48:25;;;;;;;6.88;4.00;;;13.50;92.20;;;;;;5034221;28;20041;-74
2024/03/02 07:50:51;;;;;;;7.63;4.70;;;13.60;92.40;;;;;;5034386;28;20030;-75
2024/03/02 07:53:16;;;;;;;7.57;4.22;;;13.60;92.20;;;;;;5034225;28;20052;-74
2024/03/02 07:55:42;;;;;;;6.10;4.10;;;13.80;92.00;;;;;;5027317;28;20026;-75
2024/03/02 07:58:09;;;;;;;11.05;6.20;;;14.00;91.90;;;;;;5016071;28;20038;-74
2024/03/02 08:00:35;;;;;;;9.40;5.35;;;14.20;91.80;;;;;;5015040;28;20037;-74
2024/03/02 08:03:01;;;;;;;9.30;4.75;;;14.40;91.40;;;;;;5034289;28;20033;-77
2024/03/02 08:05:27;;;;;;;8.50;5.20;;;14.60;91.40;;;;;;5032691;28;20053;-74
2024/03/02 08:07:53;;;;;;;7.60;4.53;;;14.80;91.20;;;;;;5035400;28;20429;-71
2024/03/02 08:10:19;;;;;;;8.05;4.47;;;14.90;91.00;;;;;;5034077;28;20044;-72
2024/03/02 08:12:45;;;;;;;8.85;4.50;;;14.90;90.80;;;;;;5035213;28;20026;-73
2024/03/02 08:15:12;;;;;;;10.95;4.78;;;15.00;90.80;;;;;;5016906;28;20038;-74
2024/03/02 08:17:44;;;;;;;8.90;4.35;;;15.00;90.80;;;;;;5033743;28;20043;-74
2024/03/02 08:20:11;;;;;;;12.68;6.07;;;15.00;90.80;;;;;;5034135;28;20358;-73
2024/03/02 08:22:37;;;;;;;9.95;5.95;;;15.10;90.70;;;;;;5033953;28;20044;-73
2024/03/02 08:25:04;;;;;;;10.93;5.25;;;15.00;90.70;;;;;;5034115;28;20030;-73
2024/03/02 08:27:32;;;;;;;11.52;4.70;;;15.10;90.70;;;;;;5033903;28;20389;-72
2024/03/02 08:29:57;;;;;;;9.10;3.72;;;15.10;90.80;;;;;;5034220;28;20482;-72
2024/03/02 08:32:23;;;;;;;7.68;4.10;;;15.10;90.70;;;;;;5034286;28;20056;-73
2024/03/02 08:34:49;;;;;;;14.77;4.85;;;15.20;90.80;;;;;;5016414;28;20040;-73
2024/03/02 08:37:14;;;;;;;11.68;3.63;;;15.40;90.80;;;;;;5033983;28;20040;-74
2024/03/02 08:39:40;;;;;;;8.82;4.38;;;15.50;90.50;;;;;;5033825;28;20045;-72
2024/03/02 08:42:06;;;;;;;10.25;4.50;;;15.70;90.50;;;;;;5014950;28;20120;-73
2024/03/02 08:44:33;;;;;;;13.75;4.60;;;15.80;90.30;;;;;;5033999;28;20091;-71
2024/03/02 08:46:59;;;;;;;10.82;4.13;;;15.90;90.40;;;;;;5033970;28;20038;-74
2024/03/02 08:49:25;;;;;;;8.40;4.13;;;16.00;90.40;;;;;;5033652;28;20147;-73
2024/03/02 08:51:54;;;;;;;12.38;4.82;;;16.00;90.40;;;;;;5034105;28;20489;-73
2024/03/02 08:54:23;;;;;;;10.55;3.30;;;16.10;90.30;;;;;;5033600;28;20378;-73
2024/03/02 08:56:50;;;;;;;7.97;3.88;;;16.10;90.30;;;;;;5015847;28;20099;-72
2024/03/02 08:59:16;;;;;;;10.90;3.47;;;16.10;90.30;;;;;;5033908;28;20135;-72
2024/03/02 09:01:41;;;;;;;10.57;3.70;;;16.10;90.20;;;;;;5033649;28;20033;-74
2024/03/02 09:04:10;;;;;;;10.80;2.67;;;16.10;90.20;;;;;;5033477;28;20519;-74
2024/03/02 09:06:36;;;;;;;10.27;2.90;;;16.10;90.20;;;;;;5033117;28;20117;-73
2024/03/02 09:09:02;;;;;;;7.85;2.53;;;16.10;90.10;;;;;;5033183;28;20424;-73
2024/03/02 09:11:28;;;;;;;8.40;2.40;;;16.10;90.00;;;;;;5033171;28;20037;-73
2024/03/02 09:13:55;;;;;;;11.32;2.03;;;16.20;90.00;;;;;;5033329;28;20037;-73
2024/03/02 09:16:21;;;;;;;12.75;3.28;;;16.30;89.90;;;;;;5032988;28;20034;-72
2024/03/02 09:18:47;;;;;;;19.38;7.90;;;16.50;89.80;;;;;;5033148;28;20030;-73
2024/03/02 09:21:12;;;;;;;10.77;2.95;;;16.70;89.20;;;;;;5033311;28;20037;-74
2024/03/02 09:23:40;;;;;;;7.60;2.38;;;16.90;88.80;;;;;;5033249;28;20040;-74
2024/03/02 09:26:05;;;;;;;7.70;2.28;;;16.90;88.30;;;;;;5032931;28;20405;-73
2024/03/02 09:28:31;;;;;;;6.85;1.80;;;16.90;88.10;;;;;;5033141;28;20033;-73
2024/03/02 09:30:57;;;;;;;8.70;2.08;;;16.90;88.00;;;;;;5032903;28;20084;-73
2024/03/02 09:33:22;;;;;;;6.68;1.75;;;17.00;87.90;;;;;;5033008;28;20034;-74
2024/03/02 09:35:48;;;;;;;4.70;1.85;;;17.10;87.60;;;;;;5033036;28;20025;-74
2024/03/02 09:38:14;;;;;;;7.85;1.80;;;17.20;87.20;;;;;;5032727;28;20512;-73
2024/03/02 09:40:42;;;;;;;4.93;1.80;;;17.30;86.60;;;;;;5032859;28;20042;-73
2024/03/02 09:43:08;;;;;;;5.43;1.63;;;17.40;86.10;;;;;;5033153;28;20398;-74
2024/03/02 09:45:34;;;;;;;7.00;2.22;;;17.40;85.50;;;;;;5032975;28;20037;-73
2024/03/02 09:48:00;;;;;;;5.63;1.98;;;17.40;85.30;;;;;;5032979;28;20041;-74
2024/03/02 09:50:25;;;;;;;7.75;2.40;;;17.50;85.10;;;;;;5032989;28;20391;-73
2024/03/02 09:52:52;;;;;;;5.82;1.80;;;17.60;84.80;;;;;;5032432;28;20069;-72
2024/03/02 09:55:20;;;;;;;8.00;1.95;;;17.70;84.50;;;;;;5032598;28;20463;-72
2024/03/02 09:57:48;;;;;;;4.85;1.65;;;17.60;84.10;;;;;;5032513;28;20045;-73
2024/03/02 10:00:14;;;;;;;5.45;2.15;;;17.60;84.20;;;;;;5032062;28;20067;-73
2024/03/02 10:02:44;;;;;;;7.22;2.00;;;17.50;84.30;;;;;;5032571;28;20685;-72
2024/03/02 10:05:10;;;;;;;5.57;1.98;;;17.50;84.10;;;;;;5032650;28;20061;-74
2024/03/02 10:07:36;;;;;;;9.05;2.15;;;17.60;84.30;;;;;;5032292;28;20041;-74
2024/03/02 10:10:15;;;;;;;7.20;2.05;;;17.60;84.00;;;;;;5032384;28;20520;-74
2024/03/02 10:12:41;;;;;;;6.45;1.58;;;17.50;83.70;;;;;;5014392;28;20052;-72
2024/03/02 10:15:07;;;;;;;5.70;1.50;;;17.50;83.60;;;;;;5032123;28;20041;-73
2024/03/02 10:17:33;;;;;;;7.55;1.65;;;17.60;83.60;;;;;;5032113;28;20112;-73
2024/03/02 10:19:59;;;;;;;8.90;1.80;;;17.60;83.60;;;;;;5031939;28;20072;-72
2024/03/02 10:22:26;;;;;;;6.82;1.75;;;17.70;83.30;;;;;;5032421;28;20040;-74
2024/03/02 10:24:52;;;;;;;8.93;2.42;;;17.70;83.10;;;;;;5032117;28;20033;-73
2024/03/02 10:27:23;;;;;;;7.22;1.88;;;17.80;83.10;;;;;;5031888;28;20083;-73
2024/03/02 10:29:49;;;;;;;13.30;3.25;;;18.00;82.90;;;;;;5032127;28;20509;-73
2024/03/02 10:32:16;;;;;;;8.05;2.17;;;18.20;82.20;;;;;;5031030;28;20501;-73
2024/03/02 10:34:43;;;;;;;6.60;1.88;;;18.40;81.70;;;;;;5031142;28;20034;-73
2024/03/02 10:37:10;;;;;;;6.30;1.88;;;18.50;81.40;;;;;;5031276;28;20037;-74
2024/03/02 10:39:36;;;;;;;5.88;1.58;;;18.50;81.30;;;;;;5031107;28;20030;-74
2024/03/02 10:42:06;;;;;;;6.20;1.90;;;18.60;81.20;;;;;;5030839;28;20033;-73
2024/03/02 10:44:33;;;;;;;7.07;2.00;;;18.60;81.20;;;;;;5031073;28;20061;-74
2024/03/02 10:47:03;;;;;;;9.93;1.63;;;18.60;81.10;;;;;;5031042;28;20115;-74
2024/03/02 10:49:31;;;;;;;6.85;2.17;;;18.60;81.00;;;;;;5030748;28;20025;-73
2024/03/02 10:51:58;;;;;;;6.97;1.80;;;18.50;80.90;;;;;;5012778;28;20143;-73
2024/03/02 10:54:26;;;;;;;6.70;1.85;;;18.40;81.00;;;;;;5030786;28;20026;-73
2024/03/02 10:56:54;;;;;;;5.53;1.35;;;18.40;81.80;;;;;;5031136;28;20045;-72
2024/03/02 10:59:26;;;;;;;7.95;1.70;;;18.40;80.90;;;;;;5030614;28;20037;-73
2024/03/02 11:01:56;;;;;;;4.57;1.63;;;18.40;80.70;;;;;;5030797;28;20065;-73
2024/03/02 11:04:25;;;;;;;4.95;1.60;;;18.30;80.90;;;;;;5030716;28;20108;-73
2024/03/02 11:06:51;;;;;;;6.63;3.05;;;18.30;81.00;;;;;;5034106;28;20053;-74
2024/03/02 11:09:22;;;;;;;5.80;2.55;;;18.20;81.20;;;;;;5034248;28;20025;-75
2024/03/02 11:12:11;;;;;;;7.18;2.50;;;18.20;81.50;;;;;;5033962;28;20064;-72
2024/03/02 11:14:43;;;;;;;7.63;2.05;;;18.20;81.20;;;;;;5021842;28;20029;-74
2024/03/02 11:17:10;;;;;;;6.65;1.70;;;18.40;80.90;;;;;;5034522;28;20036;-73
2024/03/02 11:19:38;;;;;;;5.13;1.80;;;18.60;80.70;;;;;;5034366;28;20126;-73
2024/03/02 11:22:04;;;;;;;4.78;1.40;;;18.70;80.20;;;;;;5016473;28;20462;-73
2024/03/02 11:24:33;;;;;;;8.25;1.88;;;18.90;80.00;;;;;;5016133;28;20033;-73
2024/03/02 11:27:00;;;;;;;7.03;1.70;;;19.00;80.00;;;;;;5034346;28;20099;-73
2024/03/02 11:29:40;;;;;;;4.55;1.60;;;19.10;79.90;;;;;;5034190;28;20030;-73
2024/03/02 11:32:14;;;;;;;6.72;1.58;;;19.00;79.90;;;;;;4989816;28;1320973;-73
2024/03/02 11:34:46;;;;;;;7.13;2.20;;;19.00;80.00;;;;;;5035563;28;20041;-72
2024/03/02 11:37:16;;;;;;;5.95;2.08;;;19.00;80.00;;;;;;5035483;28;20458;-72
2024/03/02 11:39:44;;;;;;;5.53;2.00;;;19.00;79.80;;;;;;5034924;28;20033;-73
2024/03/02 11:42:14;;;;;;;8.05;2.38;;;19.00;79.30;;;;;;5034974;28;20398;-74
2024/03/02 11:44:42;;;;;;;8.15;3.92;;;19.00;78.80;;;;;;5034856;28;20061;-73
2024/03/02 11:47:10;;;;;;;4.07;1.63;;;19.10;78.70;;;;;;5035350;28;20071;-73
2024/03/02 11:49:37;;;;;;;9.85;2.90;;;19.20;77.70;;;;;;5034859;28;20025;-72
2024/03/02 11:52:05;;;;;;;8.88;2.13;;;19.00;77.00;;;;;;5035320;28;20544;-73
2024/03/02 11:54:35;;;;;;;4.47;1.52;;;19.00;76.90;;;;;;5035101;28;20512;-73
2024/03/02 11:57:04;;;;;;;5.72;2.13;;;19.10;76.50;;;;;;5035221;28;20044;-74
2024/03/02 11:59:30;;;;;;;5.70;1.40;;;19.00;76.10;;;;;;5035070;28;20033;-73
2024/03/02 12:01:57;;;;;;;5.35;1.70;;;18.90;76.10;;;;;;5034813;28;20033;-75
2024/03/02 12:04:23;;;;;;;8.10;1.77;;;18.80;75.90;;;;;;5016957;28;20034;-72
2024/03/02 12:06:55;;;;;;;8.68;1.80;;;18.90;75.70;;;;;;5034601;28;20568;-73
2024/03/02 12:09:22;;;;;;;6.53;2.13;;;19.00;75.70;;;;;;5034627;28;20116;-73
2024/03/02 12:11:48;;;;;;;7.30;1.73;;;19.00;76.60;;;;;;5034990;28;20110;-73
2024/03/02 12:14:13;;;;;;;6.45;1.70;;;19.00;76.00;;;;;;5034990;28;20072;-74
2024/03/02 12:16:43;;;;;;;8.60;2.08;;;18.90;75.90;;;;;;5034386;28;20065;-73
2024/03/02 12:19:08;;;;;;;8.40;2.20;;;18.80;76.10;;;;;;5016454;28;20029;-72
2024/03/02 12:21:34;;;;;;;8.65;1.90;;;18.80;76.30;;;;;;5034553;28;20036;-73
2024/03/02 12:24:01;;;;;;;7.45;1.98;;;18.80;76.40;;;;;;5034481;28;20036;-73
2024/03/02 12:26:27;;;;;;;7.10;2.40;;;18.80;76.30;;;;;;5034563;28;20470;-73
2024/03/02 12:28:53;;;;;;;8.45;1.98;;;18.70;76.30;;;;;;5034636;28;20034;-73
2024/03/02 12:31:18;;;;;;;10.75;2.67;;;18.60;76.70;;;;;;5034275;28;20072;-73
2024/03/02 12:33:44;;;;;;;12.40;2.85;;;18.60;76.90;;;;;;5034547;28;20037;-74
2024/03/02 12:36:12;;;;;;;7.78;2.58;;;18.60;77.30;;;;;;5034261;28;20082;-73
2024/03/02 12:38:37;;;;;;;7.40;2.30;;;18.50;77.40;;;;;;5033978;28;20034;-73
2024/03/02 12:41:05;;;;;;;9.13;2.85;;;18.60;77.50;;;;;;5034369;28;20112;-73
2024/03/02 12:43:34;;;;;;;8.18;2.10;;;18.70;77.40;;;;;;5033839;28;20034;-73
2024/03/02 12:46:00;;;;;;;10.70;2.53;;;18.70;77.30;;;;;;5034039;28;20107;-73
2024/03/02 12:48:25;;;;;;;7.15;2.10;;;18.80;76.70;;;;;;5033990;28;20120;-74
2024/03/02 12:50:52;;;;;;;11.18;2.58;;;18.70;76.30;;;;;;5036557;28;20083;-72